Time;durP1;ratioP1;P1;durP2;ratioP2;P2;SDS_P1;SDS_P2;PMS_P1;PMS_P2;Temp;Humidity;BMP_temperature;BMP_pressure;BME280_temperature;BME280_humidity;BME280_pressure;Samples;Min_cycle;Max_cycle;Signal;HPM_P1;HPM_P2
2022/11/07 00:02:11;;;;;;;24.25;21.63;;;;;;;11.58;73.90;95139.13;5027467;28;20252;-68
2022/11/07 00:04:37;;;;;;;23.75;21.40;;;;;;;11.54;74.08;95143.88;5045578;28;20202;-68
2022/11/07 00:07:04;;;;;;;24.90;21.73;;;;;;;11.60;73.83;95140.63;5028224;28;20201;-68
2022/11/07 00:09:29;;;;;;;25.40;22.92;;;;;;;11.63;73.50;95145.59;5038151;28;20191;-68
2022/11/07 00:11:55;;;;;;;24.73;22.23;;;;;;;11.66;73.64;95152.34;5028386;28;20196;-69
2022/11/07 00:14:20;;;;;;;25.48;22.85;;;;;;;11.68;73.42;95145.09;5026565;28;20202;-71
2022/11/07 00:16:47;;;;;;;25.13;22.63;;;;;;;11.62;73.53;95143.09;5028756;28;20200;-69
2022/11/07 00:19:19;;;;;;;24.00;21.73;;;;;;;11.65;73.30;95150.69;5028535;28;20659;-70
2022/11/07 00:21:45;;;;;;;28.08;22.60;;;;;;;11.56;73.62;95144.56;5028510;28;20253;-70
2022/11/07 00:24:12;;;;;;;25.13;22.67;;;;;;;11.52;73.79;95139.72;5027903;28;20186;-71
2022/11/07 00:26:38;;;;;;;25.65;23.08;;;;;;;11.41;74.31;95144.31;5028469;28;20247;-70
2022/11/07 00:29:04;;;;;;;24.80;21.52;;;;;;;11.39;74.43;95146.25;5028225;28;20193;-68
2022/11/07 00:31:30;;;;;;;24.30;21.73;;;;;;;11.43;74.65;95147.59;5027340;28;20186;-70
2022/11/07 00:33:56;;;;;;;24.33;21.93;;;;;;;11.55;74.18;95144.72;5017634;28;20190;-69
2022/11/07 00:36:28;;;;;;;23.73;21.50;;;;;;;11.51;74.39;95141.56;5024562;28;20190;-67
2022/11/07 00:38:54;;;;;;;24.30;21.80;;;;;;;11.52;74.83;95139.72;5021559;28;20191;-68
2022/11/07 00:41:21;;;;;;;23.98;20.98;;;;;;;11.49;74.90;95146.13;5027515;28;20228;-68
2022/11/07 00:43:46;;;;;;;27.03;22.50;;;;;;;11.47;75.25;95148.13;5020919;28;20190;-66
2022/11/07 00:46:14;;;;;;;23.33;21.05;;;;;;;11.43;75.50;95142.31;5027355;28;20554;-68
2022/11/07 00:48:39;;;;;;;23.97;21.47;;;;;;;11.49;75.49;95146.13;5027523;28;20198;-68
2022/11/07 00:51:11;;;;;;;25.23;22.55;;;;;;;11.57;75.40;95140.09;5026968;28;20193;-70
2022/11/07 00:53:37;;;;;;;24.45;21.88;;;;;;;11.53;75.55;95144.84;5025631;28;20614;-70
2022/11/07 00:56:05;;;;;;;25.85;22.42;;;;;;;11.57;75.58;95150.63;5026804;28;20265;-69
2022/11/07 00:58:31;;;;;;;25.60;23.10;;;;;;;11.53;75.71;95144.84;5027547;28;20604;-68
2022/11/07 01:00:57;;;;;;;25.48;22.80;;;;;;;11.41;76.13;95146.94;5040599;28;20243;-68
2022/11/07 01:06:10;;;;;;;26.23;23.60;;;;;;;11.38;76.34;95138.50;4991003;28;20234;-68
2022/11/07 01:08:36;;;;;;;26.90;24.27;;;;;;;11.40;76.55;95133.91;4973679;28;20242;-69
2022/11/07 01:11:06;;;;;;;28.58;25.65;;;;;;;11.36;76.50;95141.28;4974841;28;20203;-68
2022/11/07 01:13:31;;;;;;;33.28;28.80;;;;;;;11.30;76.75;95128.72;4973835;28;20216;-68
2022/11/07 01:15:57;;;;;;;31.57;28.37;;;;;;;11.27;77.21;95126.41;4990701;28;20200;-70
2022/11/07 01:18:22;;;;;;;33.15;29.67;;;;;;;11.31;77.06;95122.50;4991481;28;20207;-69
2022/11/07 01:20:48;;;;;;;32.25;28.00;;;;;;;11.29;76.93;95115.72;4990832;28;20230;-68
2022/11/07 01:23:14;;;;;;;32.40;29.08;;;;;;;11.18;77.64;95119.44;4974735;28;20282;-70
2022/11/07 01:25:40;;;;;;;35.33;29.52;;;;;;;11.21;77.80;95119.94;4991505;28;20195;-67
2022/11/07 01:28:07;;;;;;;32.60;28.80;;;;;;;11.21;77.51;95119.94;4991252;28;20210;-68
2022/11/07 01:30:32;;;;;;;33.28;30.05;;;;;;;11.23;77.56;95114.53;4976425;28;20200;-67
2022/11/07 01:32:58;;;;;;;31.90;28.57;;;;;;;11.18;78.04;95109.72;4991185;28;20198;-68
2022/11/07 01:35:23;;;;;;;31.83;28.48;;;;;;;11.17;77.94;95112.50;4991697;28;20246;-70
2022/11/07 01:37:49;;;;;;;32.55;29.25;;;;;;;11.24;77.78;95103.84;4971306;28;20204;-69
2022/11/07 01:40:14;;;;;;;34.83;29.10;;;;;;;11.26;77.69;95108.97;4971631;28;20702;-69
2022/11/07 01:42:40;;;;;;;36.55;28.42;;;;;;;11.19;77.87;95100.84;4977062;28;20218;-68
2022/11/07 01:45:05;;;;;;;33.72;29.00;;;;;;;11.25;77.95;95100.25;5008377;28;20510;-69
2022/11/07 01:47:36;;;;;;;31.75;28.40;;;;;;;11.21;78.20;95116.50;5011211;28;20282;-69
2022/11/07 01:50:05;;;;;;;31.27;27.98;;;;;;;11.20;78.21;95118.31;5027514;28;20276;-68
2022/11/07 01:52:36;;;;;;;32.00;28.60;;;;;;;11.16;78.54;95113.50;5010143;28;20402;-70
2022/11/07 01:55:04;;;;;;;31.55;28.20;;;;;;;11.15;78.56;95109.22;5043543;28;20213;-69
2022/11/07 01:57:38;;;;;;;30.07;26.97;;;;;;;11.12;78.70;95109.50;5006408;28;20281;-71
2022/11/07 02:00:08;;;;;;;30.77;27.48;;;;;;;11.08;78.80;95116.88;5007464;28;20188;-68
2022/11/07 02:02:34;;;;;;;30.50;27.17;;;;;;;11.06;79.15;95116.19;5027836;28;20245;-68
2022/11/07 02:05:01;;;;;;;30.83;27.55;;;;;;;11.07;78.82;95112.63;5027720;28;20191;-68
2022/11/07 02:07:28;;;;;;;35.73;27.63;;;;;;;10.96;79.22;95118.94;5030676;28;20420;-69
2022/11/07 02:09:54;;;;;;;30.88;27.75;;;;;;;10.99;79.20;95110.75;5030349;28;20225;-68
2022/11/07 02:12:22;;;;;;;31.38;27.33;;;;;;;10.99;79.41;95126.53;5030740;28;20297;-68
2022/11/07 02:14:48;;;;;;;30.58;27.20;;;;;;;10.96;79.43;95118.09;5029194;28;20277;-68
2022/11/07 02:17:14;;;;;;;32.72;29.27;;;;;;;10.92;79.62;95124.66;5026211;28;20258;-68
2022/11/07 02:19:48;;;;;;;32.80;28.10;;;;;;;10.95;79.92;95125.16;5029665;28;20255;-69
2022/11/07 02:22:24;;;;;;;31.73;28.30;;;;;;;11.03;79.25;95127.03;5041382;28;20222;-68
2022/11/07 02:24:54;;;;;;;32.80;29.25;;;;;;;11.06;78.54;95129.34;5046850;28;20197;-68
2022/11/07 02:27:24;;;;;;;31.65;28.45;;;;;;;10.96;77.45;95129.47;5043048;28;20190;-68
2022/11/07 02:29:54;;;;;;;33.20;29.67;;;;;;;10.91;77.30;95129.09;5029433;28;20245;-68
2022/11/07 02:32:19;;;;;;;35.17;30.75;;;;;;;10.79;77.27;95133.72;5026968;28;20264;-69
2022/11/07 02:34:58;;;;;;;35.05;31.27;;;;;;;10.65;77.09;95126.38;5029717;28;20296;-69
2022/11/07 02:37:31;;;;;;;35.28;31.40;;;;;;;10.54;77.55;95130.03;5028580;28;20247;-68
2022/11/07 02:39:59;;;;;;;33.72;30.50;;;;;;;10.52;77.51;95139.88;5021377;28;20202;-68
2022/11/07 02:42:26;;;;;;;34.30;30.58;;;;;;;10.57;76.96;95131.56;5029402;28;20339;-68
2022/11/07 02:44:54;;;;;;;33.00;29.77;;;;;;;10.42;76.92;95127.75;5030070;28;20190;-68
2022/11/07 02:47:19;;;;;;;33.90;30.40;;;;;;;10.48;76.80;95125.38;5028943;28;20186;-68
2022/11/07 02:49:45;;;;;;;34.40;30.80;;;;;;;10.33;77.38;95124.22;5029712;28;20197;-68
2022/11/07 02:52:10;;;;;;;31.52;28.45;;;;;;;10.36;77.66;95127.38;5026791;28;20274;-68
2022/11/07 02:54:35;;;;;;;33.63;30.10;;;;;;;10.40;77.31;95133.19;5045830;28;20755;-68
2022/11/07 02:57:01;;;;;;;33.83;30.50;;;;;;;10.42;77.22;95133.03;5029383;28;20194;-68
2022/11/07 02:59:26;;;;;;;33.13;29.83;;;;;;;10.45;76.71;95133.56;5029132;28;20202;-69
2022/11/07 03:01:52;;;;;;;33.07;29.93;;;;;;;10.40;76.75;95127.94;5029380;28;20309;-69
2022/11/07 03:04:18;;;;;;;31.97;28.80;;;;;;;10.27;77.39;95132.69;5028916;28;20198;-68
2022/11/07 03:06:43;;;;;;;32.75;29.42;;;;;;;10.26;77.06;95134.47;5030723;28;20190;-68
2022/11/07 03:09:09;;;;;;;32.63;29.33;;;;;;;10.19;77.25;95128.16;5029830;28;20189;-69
2022/11/07 03:11:34;;;;;;;31.63;28.53;;;;;;;10.13;77.55;95132.19;5030620;28;20198;-68
2022/11/07 03:13:59;;;;;;;33.47;29.98;;;;;;;10.18;77.45;95128.28;5030877;28;20186;-68
2022/11/07 03:16:25;;;;;;;36.77;29.87;;;;;;;10.23;77.19;95133.94;5030608;28;20244;-68
2022/11/07 03:18:50;;;;;;;33.37;29.90;;;;;;;10.22;77.22;95134.91;5026895;28;20261;-69
2022/11/07 03:21:16;;;;;;;31.77;28.67;;;;;;;10.14;77.55;95130.38;5030389;28;20727;-69
2022/11/07 03:23:41;;;;;;;31.42;28.30;;;;;;;10.18;77.30;95141.44;5030283;28;20190;-68
2022/11/07 03:26:06;;;;;;;33.20;29.77;;;;;;;10.16;76.82;95139.78;5030613;28;20178;-69
2022/11/07 03:28:32;;;;;;;32.80;29.35;;;;;;;9.95;77.29;95131.31;5046065;28;20218;-68
2022/11/07 03:31:02;;;;;;;33.05;29.38;;;;;;;9.94;77.66;95140.16;5030205;28;20251;-68
2022/11/07 03:33:29;;;;;;;33.17;29.98;;;;;;;9.90;77.83;95137.00;5027290;28;20205;-68
2022/11/07 03:35:55;;;;;;;32.67;29.50;;;;;;;9.99;77.94;95150.22;5029798;28;20186;-68
2022/11/07 03:38:20;;;;;;;30.70;27.60;;;;;;;9.98;78.21;95156.47;5029019;28;20539;-68
2022/11/07 03:40:45;;;;;;;32.07;28.73;;;;;;;9.96;77.40;95156.59;5024657;28;20194;-68
2022/11/07 03:43:11;;;;;;;31.70;28.57;;;;;;;9.95;76.79;95162.84;5027205;28;20224;-68
2022/11/07 03:45:36;;;;;;;32.13;28.83;;;;;;;9.85;76.67;95169.91;5046160;28;20190;-68
2022/11/07 03:48:02;;;;;;;32.67;29.27;;;;;;;9.90;76.10;95170.31;5026347;28;20658;-68
2022/11/07 03:50:27;;;;;;;32.47;29.17;;;;;;;9.93;75.99;95173.47;5028929;28;20194;-68
2022/11/07 03:52:53;;;;;;;32.37;29.13;;;;;;;9.88;76.12;95170.44;5029303;28;20232;-68
2022/11/07 03:55:18;;;;;;;34.17;30.60;;;;;;;9.80;76.49;95180.84;5028232;28;20186;-67
2022/11/07 03:57:45;;;;;;;31.37;28.10;;;;;;;9.91;76.49;95180.66;5028895;28;20708;-67
2022/11/07 04:00:11;;;;;;;31.97;28.93;;;;;;;9.92;76.30;95184.13;5028048;28;20281;-67
2022/11/07 04:02:36;;;;;;;31.20;28.20;;;;;;;9.93;76.12;95186.59;5028743;28;20387;-67
2022/11/07 04:05:02;;;;;;;34.33;28.70;;;;;;;10.02;75.70;95194.59;5028305;28;20281;-67
2022/11/07 04:07:28;;;;;;;30.77;27.60;;;;;;;10.02;75.01;95187.53;5028540;28;20190;-67
2022/11/07 04:09:53;;;;;;;28.70;25.27;;;;;;;9.92;74.81;95192.03;5027488;28;20281;-66
2022/11/07 04:17:47;;;;;;;29.07;26.03;;;;;;;9.97;75.15;95202.94;5030138;28;20549;-68
2022/11/07 04:20:12;;;;;;;28.63;25.83;;;;;;;10.06;75.13;95199.44;5044918;28;20729;-67
2022/11/07 04:22:37;;;;;;;29.77;26.77;;;;;;;10.02;74.80;95200.66;5024929;28;20215;-67
2022/11/07 04:25:03;;;;;;;29.73;26.63;;;;;;;9.92;75.41;95203.34;5029339;28;20642;-68
2022/11/07 04:27:45;;;;;;;29.70;26.67;;;;;;;9.88;75.59;95193.25;5028075;28;20194;-66
2022/11/07 04:30:19;;;;;;;29.00;26.10;;;;;;;9.80;76.19;95195.78;5026729;28;20213;-67
2022/11/07 04:32:50;;;;;;;31.77;27.10;;;;;;;9.74;76.32;95201.59;5042685;28;20253;-66
2022/11/07 04:35:16;;;;;;;30.07;27.00;;;;;;;9.74;76.67;95201.59;5029022;28;20194;-67
2022/11/07 04:37:42;;;;;;;30.20;26.80;;;;;;;9.80;76.94;95201.03;5028251;28;20795;-67
2022/11/07 04:40:09;;;;;;;29.63;26.73;;;;;;;9.86;76.60;95203.06;5031881;28;20190;-67
2022/11/07 04:42:35;;;;;;;30.60;26.60;;;;;;;9.93;76.47;95212.06;5033975;28;20225;-67
2022/11/07 04:45:00;;;;;;;29.60;26.27;;;;;;;9.91;76.15;95206.09;5027148;28;20348;-67
2022/11/07 04:47:26;;;;;;;28.67;25.70;;;;;;;9.87;75.96;95207.38;5029666;28;20190;-67
2022/11/07 04:49:51;;;;;;;30.00;26.77;;;;;;;9.82;76.01;95210.41;5049295;28;20194;-67
2022/11/07 04:52:17;;;;;;;29.07;26.03;;;;;;;9.72;75.65;95202.56;5032319;28;20198;-67
2022/11/07 04:54:42;;;;;;;29.00;25.87;;;;;;;9.66;76.25;95205.75;5032349;28;20668;-66
2022/11/07 04:57:07;;;;;;;26.97;24.23;;;;;;;9.78;75.86;95203.78;5048583;28;20297;-67
2022/11/07 04:59:33;;;;;;;27.43;24.13;;;;;;;9.82;75.34;95204.34;5032587;28;20557;-66
2022/11/07 05:01:58;;;;;;;29.47;25.23;;;;;;;9.85;75.11;95209.31;5032964;28;20237;-67
2022/11/07 05:04:24;;;;;;;28.13;25.00;;;;;;;9.88;75.21;95209.84;5035489;28;20680;-67
2022/11/07 05:06:49;;;;;;;26.93;24.13;;;;;;;9.85;74.84;95219.81;5037838;28;20192;-67
2022/11/07 05:09:16;;;;;;;30.67;25.40;;;;;;;9.63;76.38;95216.53;5037501;28;20194;-68
2022/11/07 05:11:45;;;;;;;32.07;27.03;;;;;;;9.80;75.79;95220.22;5033020;28;20198;-68
2022/11/07 05:14:11;;;;;;;29.90;26.63;;;;;;;9.63;76.29;95211.28;5037926;28;20194;-69
2022/11/07 05:16:36;;;;;;;29.77;26.87;;;;;;;9.79;76.09;95209.88;5033771;28;20194;-66
2022/11/07 05:19:02;;;;;;;29.57;25.53;;;;;;;9.87;75.55;95218.69;5037387;28;20212;-68
2022/11/07 05:21:28;;;;;;;31.17;25.73;;;;;;;9.92;76.03;95220.91;5039569;28;20213;-68
2022/11/07 05:23:53;;;;;;;29.13;26.13;;;;;;;9.98;74.86;95230.03;5031017;28;20649;-67
2022/11/07 05:26:18;;;;;;;30.10;25.83;;;;;;;9.89;75.06;95229.06;5033869;28;20271;-69
2022/11/07 05:28:44;;;;;;;27.23;24.30;;;;;;;9.89;75.03;95229.91;5032491;28;20202;-67
2022/11/07 05:31:17;;;;;;;30.27;27.27;;;;;;;9.97;74.49;95236.22;5031839;28;20197;-68
2022/11/07 05:33:43;;;;;;;33.37;30.00;;;;;;;10.07;74.27;95248.34;5035625;28;21257;-67
2022/11/07 05:36:12;;;;;;;32.17;28.80;;;;;;;10.23;73.78;95254.81;5032935;28;20225;-67
2022/11/07 05:38:42;;;;;;;30.73;26.87;;;;;;;10.20;73.83;95244.59;5031464;28;20232;-67
2022/11/07 05:41:08;;;;;;;28.87;25.80;;;;;;;10.34;73.19;95252.88;5034597;28;20650;-68
2022/11/07 05:43:34;;;;;;;29.97;26.83;;;;;;;10.25;73.55;95248.44;5034611;28;20232;-68
2022/11/07 05:46:00;;;;;;;27.80;25.13;;;;;;;10.31;73.79;95255.78;5034985;28;20197;-69
2022/11/07 05:48:26;;;;;;;29.60;24.13;;;;;;;10.41;73.64;95258.38;5036330;28;20205;-68
2022/11/07 05:50:51;;;;;;;30.90;26.27;;;;;;;10.54;73.18;95253.63;5046777;28;20254;-69
2022/11/07 05:53:19;;;;;;;30.30;27.03;;;;;;;10.57;73.22;95255.94;5038400;28;20213;-68
2022/11/07 05:55:45;;;;;;;33.43;25.73;;;;;;;10.64;73.20;95265.88;5034217;28;20243;-67
2022/11/07 05:58:14;;;;;;;28.40;25.50;;;;;;;10.66;73.07;95266.56;5031459;28;20273;-67
2022/11/07 06:00:40;;;;;;;27.80;25.10;;;;;;;10.66;73.09;95262.13;5030920;28;20263;-67
2022/11/07 06:03:07;;;;;;;27.77;24.87;;;;;;;10.77;72.79;95269.84;5026673;28;20664;-67
2022/11/07 06:05:33;;;;;;;28.37;25.47;;;;;;;10.88;72.52;95260.06;5030653;28;20289;-69
2022/11/07 06:07:58;;;;;;;26.13;23.37;;;;;;;10.88;72.17;95262.72;5029910;28;20293;-67
2022/11/07 06:10:24;;;;;;;29.20;26.17;;;;;;;10.87;72.83;95267.16;5029675;28;20212;-67
2022/11/07 06:12:58;;;;;;;29.13;25.77;;;;;;;11.12;72.20;95278.78;5030081;28;20919;-68
2022/11/07 06:15:23;;;;;;;30.57;25.40;;;;;;;10.98;72.25;95269.56;5026385;28;20207;-67
2022/11/07 06:17:49;;;;;;;29.97;26.17;;;;;;;11.13;72.13;95275.16;5029469;28;20209;-66
2022/11/07 06:20:14;;;;;;;30.10;25.57;;;;;;;11.01;72.62;95276.34;5029357;28;20190;-65
2022/11/07 06:22:39;;;;;;;31.03;25.87;;;;;;;11.11;72.46;95292.06;5029671;28;20225;-67
2022/11/07 06:25:05;;;;;;;33.60;26.57;;;;;;;11.14;71.90;95279.44;5030312;28;20187;-67
2022/11/07 06:27:31;;;;;;;27.90;24.53;;;;;;;11.13;72.42;95285.69;5036345;28;20205;-67
2022/11/07 06:29:56;;;;;;;28.60;25.77;;;;;;;11.21;71.99;95285.78;5030307;28;20198;-67
2022/11/07 06:32:22;;;;;;;30.67;27.50;;;;;;;11.27;72.33;95289.59;5030331;28;20194;-67
2022/11/07 06:34:47;;;;;;;29.90;24.73;;;;;;;11.32;72.41;95295.25;5028395;28;20612;-66
2022/11/07 06:37:12;;;;;;;29.37;26.57;;;;;;;11.40;71.98;95297.97;5028317;28;20277;-66
2022/11/07 06:39:38;;;;;;;30.55;26.98;;;;;;;11.55;71.27;95302.72;5022790;28;20574;-68
2022/11/07 06:42:03;;;;;;;34.03;27.90;;;;;;;11.48;71.39;95295.41;5030813;28;20209;-68
2022/11/07 06:44:29;;;;;;;29.08;26.25;;;;;;;11.52;71.60;95306.50;5030340;28;20325;-66
2022/11/07 06:46:54;;;;;;;30.60;27.35;;;;;;;11.45;72.31;95310.69;5030734;28;20517;-67
2022/11/07 06:49:20;;;;;;;30.37;27.17;;;;;;;11.44;72.56;95312.50;5029200;28;20194;-67
2022/11/07 06:51:45;;;;;;;30.65;27.40;;;;;;;11.45;72.60;95305.44;5029425;28;20186;-67
2022/11/07 06:54:12;;;;;;;34.80;29.00;;;;;;;11.49;72.67;95312.03;5024398;28;20194;-67
2022/11/07 06:56:37;;;;;;;34.10;29.10;;;;;;;11.64;71.94;95315.81;5014431;28;20225;-67
2022/11/07 06:59:03;;;;;;;31.00;27.53;;;;;;;11.60;72.22;95308.34;5046202;28;20218;-67
2022/11/07 07:01:28;;;;;;;33.00;28.70;;;;;;;11.66;71.78;95313.84;5029119;28;20238;-67
2022/11/07 07:03:54;;;;;;;34.15;28.50;;;;;;;11.58;72.83;95323.50;5028876;28;20233;-68
2022/11/07 07:06:19;;;;;;;31.60;28.47;;;;;;;11.64;72.18;95314.97;5030017;28;20182;-68
2022/11/07 07:08:45;;;;;;;32.00;28.50;;;;;;;11.74;71.92;95320.19;5030165;28;20190;-68
2022/11/07 07:11:13;;;;;;;34.53;29.10;;;;;;;11.80;71.69;95323.03;5028983;28;20276;-68
2022/11/07 07:13:39;;;;;;;31.67;28.48;;;;;;;11.75;71.82;95319.19;5029516;28;20578;-68
2022/11/07 07:16:05;;;;;;;30.60;27.35;;;;;;;11.88;71.67;95323.13;5030150;28;20280;-69
2022/11/07 07:18:31;;;;;;;32.93;29.40;;;;;;;11.88;71.58;95320.50;5030106;28;20268;-69
2022/11/07 07:21:06;;;;;;;32.95;29.25;;;;;;;11.85;71.55;95320.75;5030063;28;20254;-67
2022/11/07 07:23:33;;;;;;;31.10;27.77;;;;;;;11.78;71.67;95317.06;5043087;28;20197;-68
2022/11/07 07:26:03;;;;;;;37.80;31.23;;;;;;;11.91;71.77;95327.25;5029555;28;20220;-68
2022/11/07 07:28:29;;;;;;;34.25;29.45;;;;;;;11.82;72.15;95330.78;5028292;28;20190;-68
2022/11/07 07:31:27;;;;;;;34.70;31.33;;;;;;;11.87;72.12;95334.66;5029395;28;20259;-68
2022/11/07 07:33:53;;;;;;;36.97;29.67;;;;;;;11.95;71.94;95328.63;5044298;28;20186;-68
2022/11/07 07:36:20;;;;;;;32.20;28.90;;;;;;;11.99;72.17;95334.41;5028962;28;21116;-70
2022/11/07 07:38:45;;;;;;;37.33;30.77;;;;;;;11.98;72.27;95328.31;5026812;28;20186;-70
2022/11/07 07:41:11;;;;;;;38.40;31.77;;;;;;;12.08;71.74;95338.75;5029051;28;20217;-70
2022/11/07 07:43:36;;;;;;;35.33;31.52;;;;;;;12.06;71.95;95335.47;5030407;28;20192;-69
2022/11/07 07:46:04;;;;;;;33.90;30.40;;;;;;;12.23;71.07;95328.50;5029927;28;20190;-69
2022/11/07 07:48:30;;;;;;;30.73;27.40;;;;;;;12.34;70.05;95336.97;5029328;28;20190;-71
2022/11/07 07:50:57;;;;;;;31.27;27.98;;;;;;;12.33;69.53;95329.22;5026920;28;20197;-70
2022/11/07 07:53:22;;;;;;;31.52;28.02;;;;;;;12.32;69.76;95325.78;5028900;28;20186;-70
2022/11/07 07:55:48;;;;;;;33.28;29.30;;;;;;;12.47;69.46;95326.00;5029628;28;20193;-69
2022/11/07 07:58:13;;;;;;;34.40;28.58;;;;;;;12.21;70.49;95327.81;5028779;28;20189;-68
2022/11/07 08:00:40;;;;;;;34.80;28.52;;;;;;;12.46;69.97;95337.56;5028872;28;20190;-66
2022/11/07 08:03:12;;;;;;;33.33;28.27;;;;;;;12.68;69.10;95335.38;5032670;28;20234;-67
2022/11/07 08:05:38;;;;;;;36.15;28.90;;;;;;;12.89;68.27;95322.59;5033706;28;20284;-70
2022/11/07 08:08:05;;;;;;;37.35;28.92;;;;;;;13.02;67.76;95330.91;5026387;28;20356;-64
2022/11/07 08:10:31;;;;;;;32.00;28.08;;;;;;;13.31;66.84;95334.16;5013703;28;20195;-64
2022/11/07 08:12:56;;;;;;;36.15;28.10;;;;;;;13.28;66.80;95327.38;5016224;28;20196;-63
2022/11/07 08:15:22;;;;;;;34.30;28.45;;;;;;;13.38;66.33;95322.78;5030292;28;20190;-69
2022/11/07 08:17:47;;;;;;;32.20;27.52;;;;;;;13.40;66.47;95330.56;5037109;28;20314;-71
2022/11/07 08:20:15;;;;;;;33.35;29.30;;;;;;;13.45;66.73;95323.00;5031386;28;20194;-69
2022/11/07 08:22:41;;;;;;;33.17;29.70;;;;;;;13.58;66.57;95328.63;5044976;28;20206;-69
2022/11/07 08:25:09;;;;;;;32.50;28.08;;;;;;;13.80;66.10;95329.81;5032201;28;20668;-71
2022/11/07 08:27:35;;;;;;;33.45;27.70;;;;;;;13.94;65.96;95333.63;5048519;28;20273;-71
2022/11/07 08:30:01;;;;;;;31.80;28.15;;;;;;;13.92;66.03;95334.78;5027280;28;20275;-68
2022/11/07 08:32:27;;;;;;;33.63;29.92;;;;;;;13.99;65.77;95326.03;5031848;28;20205;-66
2022/11/07 08:34:52;;;;;;;32.53;29.05;;;;;;;14.07;65.12;95331.31;5031209;28;20193;-66
2022/11/07 08:37:18;;;;;;;34.55;29.92;;;;;;;14.12;65.21;95329.00;5033873;28;20182;-69
2022/11/07 08:39:43;;;;;;;34.85;29.40;;;;;;;14.15;65.65;95332.31;5029939;28;20277;-67
2022/11/07 08:42:09;;;;;;;36.70;29.80;;;;;;;14.13;65.67;95333.28;5029329;28;20206;-70
2022/11/07 08:44:35;;;;;;;31.33;28.05;;;;;;;14.08;66.09;95338.22;5035649;28;20209;-68
2022/11/07 08:47:05;;;;;;;31.80;28.13;;;;;;;14.21;65.52;95339.56;5031179;28;20186;-68
2022/11/07 08:49:30;;;;;;;32.08;27.50;;;;;;;14.17;65.73;95339.09;5029755;28;20177;-68
2022/11/07 08:51:56;;;;;;;30.73;26.38;;;;;;;14.31;65.28;95329.66;5029112;28;20201;-66
2022/11/07 08:54:21;;;;;;;30.73;26.73;;;;;;;14.29;65.45;95331.63;5031885;28;20186;-68
2022/11/07 08:56:47;;;;;;;28.98;25.85;;;;;;;14.39;65.44;95342.84;5030983;28;20240;-67
2022/11/07 08:59:13;;;;;;;36.20;26.75;;;;;;;14.44;65.45;95337.06;5028843;28;20194;-67
2022/11/07 09:01:39;;;;;;;28.45;25.15;;;;;;;14.57;64.64;95334.78;5027868;28;20662;-66
2022/11/07 09:04:05;;;;;;;29.13;25.13;;;;;;;14.60;64.59;95345.00;5031278;28;20201;-66
2022/11/07 09:06:33;;;;;;;24.85;22.30;;;;;;;14.65;63.97;95340.03;5036384;28;20178;-67
2022/11/07 09:08:59;;;;;;;25.88;22.10;;;;;;;14.81;62.91;95339.19;5033793;28;20229;-66
2022/11/07 09:11:25;;;;;;;24.70;22.25;;;;;;;14.87;62.71;95346.44;5032659;28;20242;-67
2022/11/07 09:13:52;;;;;;;26.13;22.75;;;;;;;14.92;62.73;95343.28;5034249;28;20182;-67
2022/11/07 09:16:18;;;;;;;25.90;21.88;;;;;;;14.88;62.74;95337.47;5036277;28;20716;-68
2022/11/07 09:18:45;;;;;;;26.25;22.85;;;;;;;14.98;62.63;95347.88;5034923;28;20190;-69
2022/11/07 09:21:11;;;;;;;28.90;22.40;;;;;;;14.93;61.48;95340.44;5033451;28;20289;-70
2022/11/07 09:23:37;;;;;;;24.33;21.83;;;;;;;15.11;61.61;95347.34;5034808;28;20641;-67
2022/11/07 09:26:02;;;;;;;25.70;21.13;;;;;;;15.13;61.13;95346.19;5034146;28;20213;-68
2022/11/07 09:28:28;;;;;;;23.38;19.98;;;;;;;15.22;59.85;95337.19;5054451;28;20181;-67
2022/11/07 09:30:56;;;;;;;23.40;20.92;;;;;;;15.10;60.17;95332.44;5031728;28;20751;-68
2022/11/07 09:33:22;;;;;;;23.90;21.30;;;;;;;14.97;60.79;95333.81;5036996;28;20551;-68
2022/11/07 09:35:48;;;;;;;23.02;20.63;;;;;;;14.94;60.28;95323.59;5043324;28;20254;-67
2022/11/07 09:38:14;;;;;;;23.42;20.88;;;;;;;14.95;59.38;95327.06;5041463;28;20598;-67
2022/11/07 09:41:04;;;;;;;26.73;21.42;;;;;;;14.82;59.81;95322.28;5036783;28;20189;-67
2022/11/07 09:44:03;;;;;;;23.45;20.92;;;;;;;14.81;60.61;95315.34;5041898;28;20653;-68
2022/11/07 09:46:50;;;;;;;29.42;22.35;;;;;;;14.84;60.90;95315.00;5038910;28;20781;-68
2022/11/07 09:49:24;;;;;;;25.38;20.17;;;;;;;14.92;59.50;95309.69;5050767;28;20189;-68
2022/11/07 09:52:11;;;;;;;24.17;20.40;;;;;;;15.14;58.51;95299.34;5052416;28;20618;-66
2022/11/07 09:54:44;;;;;;;24.35;20.50;;;;;;;15.42;58.21;95312.91;5049050;28;20515;-67
2022/11/07 09:57:15;;;;;;;21.88;19.67;;;;;;;15.61;56.58;95314.28;5035357;28;20213;-68
2022/11/07 09:59:45;;;;;;;25.02;20.38;;;;;;;15.89;56.29;95309.34;5035721;28;20182;-66
2022/11/07 10:02:14;;;;;;;23.80;21.25;;;;;;;16.00;56.32;95310.75;5045906;28;20321;-66
2022/11/07 10:04:40;;;;;;;21.15;18.92;;;;;;;16.10;55.12;95306.03;5012383;28;20237;-66
2022/11/07 10:07:27;;;;;;;21.80;19.58;;;;;;;16.47;54.52;95299.06;5011685;28;20187;-69
2022/11/07 10:10:05;;;;;;;23.45;20.80;;;;;;;16.64;53.76;95305.03;5011849;28;20207;-66
2022/11/07 10:12:31;;;;;;;23.45;19.98;;;;;;;16.85;52.75;95317.59;5009875;28;20325;-70
2022/11/07 10:15:09;;;;;;;20.80;18.50;;;;;;;17.20;52.56;95311.53;5011984;28;20246;-70
2022/11/07 10:17:43;;;;;;;23.40;18.23;;;;;;;17.17;51.72;95298.63;5014223;28;20292;-70
2022/11/07 10:20:21;;;;;;;21.15;18.95;;;;;;;17.05;51.23;95296.59;5011532;28;20202;-67
2022/11/07 10:23:02;;;;;;;21.35;19.25;;;;;;;17.24;51.71;95284.56;5009635;28;20206;-67
2022/11/07 10:25:51;;;;;;;20.88;18.67;;;;;;;17.35;50.50;95289.44;5022531;28;20198;-70
2022/11/07 10:28:19;;;;;;;20.20;18.23;;;;;;;17.31;51.42;95285.50;5004808;28;20654;-70
2022/11/07 10:30:50;;;;;;;19.25;17.23;;;;;;;17.41;49.65;95280.69;5011695;28;20735;-71
2022/11/07 10:33:37;;;;;;;21.35;18.33;;;;;;;17.52;49.87;95282.88;5011462;28;20270;-68
2022/11/07 10:36:35;;;;;;;18.85;16.38;;;;;;;17.33;49.83;95278.97;5010934;28;20183;-70
2022/11/07 10:39:14;;;;;;;20.92;17.38;;;;;;;17.50;49.66;95273.44;4953081;28;20200;-66
2022/11/07 10:41:45;;;;;;;22.27;18.05;;;;;;;17.66;49.34;95269.72;4970362;28;21044;-68
2022/11/07 10:44:20;;;;;;;21.55;16.67;;;;;;;17.68;49.30;95257.06;4973433;28;20888;-67
2022/11/07 10:46:46;;;;;;;19.95;16.30;;;;;;;17.51;50.78;95259.97;4956081;28;20207;-67
2022/11/07 10:49:20;;;;;;;20.23;16.52;;;;;;;17.59;49.80;95251.03;4954371;28;20212;-67
2022/11/07 10:51:46;;;;;;;18.65;16.10;;;;;;;17.68;49.89;95257.88;4954419;28;20188;-67
2022/11/07 10:54:30;;;;;;;20.40;16.13;;;;;;;17.81;49.37;95257.22;4950015;28;20250;-67
2022/11/07 10:56:56;;;;;;;17.33;15.20;;;;;;;17.99;48.84;95256.72;4955514;28;20184;-68
2022/11/07 10:59:27;;;;;;;17.75;15.68;;;;;;;17.91;48.46;95240.91;4971492;28;20256;-68
2022/11/07 11:01:55;;;;;;;17.55;15.65;;;;;;;17.95;48.72;95252.81;4954663;28;20224;-68
2022/11/07 11:04:31;;;;;;;16.10;14.52;;;;;;;18.17;48.70;95261.59;4971349;28;20195;-68
2022/11/07 11:06:57;;;;;;;17.92;15.35;;;;;;;18.45;47.35;95242.97;4975133;28;20192;-68
2022/11/07 11:09:28;;;;;;;17.70;15.60;;;;;;;18.39;46.98;95239.25;4958448;28;20239;-68
2022/11/07 11:11:53;;;;;;;18.27;15.32;;;;;;;18.49;46.83;95234.38;4953376;28;20230;-68
2022/11/07 11:14:20;;;;;;;18.67;15.25;;;;;;;18.69;46.43;95237.19;4972673;28;20195;-68
2022/11/07 11:16:51;;;;;;;18.23;15.70;;;;;;;18.88;46.53;95233.00;5041259;28;20222;-68
2022/11/07 11:19:22;;;;;;;17.67;15.85;;;;;;;19.01;45.31;95226.09;5042299;28;20214;-68
2022/11/07 11:21:49;;;;;;;14.98;13.48;;;;;;;18.91;45.30;95229.94;5010320;28;20203;-67
2022/11/07 11:24:26;;;;;;;16.20;14.38;;;;;;;19.19;43.93;95226.34;5009722;28;20752;-67
2022/11/07 11:26:53;;;;;;;14.85;13.35;;;;;;;18.71;44.39;95229.81;5042053;28;20207;-70
2022/11/07 11:29:31;;;;;;;16.02;13.52;;;;;;;18.36;44.70;95228.97;5009654;28;20187;-69
2022/11/07 11:32:00;;;;;;;16.52;15.02;;;;;;;18.46;46.26;95229.44;5009878;28;20288;-68